sensor_id;sensor_type;location;lat;lon;timestamp;temperature;humidity
67101;DHT22;54019;61.746;16.106;2022-11-20T00:02:19;20.80;34.40
67101;DHT22;54019;61.746;16.106;2022-11-20T00:04:45;20.80;34.50
67101;DHT22;54019;61.746;16.106;2022-11-20T00:07:11;20.80;34.40
67101;DHT22;54019;61.746;16.106;2022-11-20T00:09:37;20.80;34.30
67101;DHT22;54019;61.746;16.106;2022-11-20T00:12:03;20.90;34.40
67101;DHT22;54019;61.746;16.106;2022-11-20T00:14:30;20.90;34.40
67101;DHT22;54019;61.746;16.106;2022-11-20T00:16:56;20.90;34.30
67101;DHT22;54019;61.746;16.106;2022-11-20T00:19:22;20.90;34.50
67101;DHT22;54019;61.746;16.106;2022-11-20T00:21:47;20.80;34.40
67101;DHT22;54019;61.746;16.106;2022-11-20T00:24:13;20.80;34.60
67101;DHT22;54019;61.746;16.106;2022-11-20T00:26:39;20.80;34.70
67101;DHT22;54019;61.746;16.106;2022-11-20T00:29:05;20.80;34.70
67101;DHT22;54019;61.746;16.106;2022-11-20T00:31:32;20.90;34.90
67101;DHT22;54019;61.746;16.106;2022-11-20T00:33:58;20.80;34.70
67101;DHT22;54019;61.746;16.106;2022-11-20T00:36:25;20.80;34.70
67101;DHT22;54019;61.746;16.106;2022-11-20T00:38:52;20.80;34.70
67101;DHT22;54019;61.746;16.106;2022-11-20T00:41:18;20.90;34.80
67101;DHT22;54019;61.746;16.106;2022-11-20T00:43:44;20.80;34.80
67101;DHT22;54019;61.746;16.106;2022-11-20T00:46:13;20.80;34.90
67101;DHT22;54019;61.746;16.106;2022-11-20T00:48:40;20.80;34.90
67101;DHT22;54019;61.746;16.106;2022-11-20T00:51:06;20.80;34.90
67101;DHT22;54019;61.746;16.106;2022-11-20T00:53:32;20.80;35.00
67101;DHT22;54019;61.746;16.106;2022-11-20T00:56:00;20.80;35.00
67101;DHT22;54019;61.746;16.106;2022-11-20T00:58:30;20.80;35.00
67101;DHT22;54019;61.746;16.106;2022-11-20T01:01:00;20.80;34.90
67101;DHT22;54019;61.746;16.106;2022-11-20T01:03:25;20.80;34.90
67101;DHT22;54019;61.746;16.106;2022-11-20T01:05:58;20.80;34.90
67101;DHT22;54019;61.746;16.106;2022-11-20T01:08:24;20.80;34.80
67101;DHT22;54019;61.746;16.106;2022-11-20T01:10:50;20.80;34.90
67101;DHT22;54019;61.746;16.106;2022-11-20T01:13:16;20.80;35.00
67101;DHT22;54019;61.746;16.106;2022-11-20T01:15:41;20.80;35.00
67101;DHT22;54019;61.746;16.106;2022-11-20T01:18:07;20.80;34.90
67101;DHT22;54019;61.746;16.106;2022-11-20T01:20:34;20.80;35.10
67101;DHT22;54019;61.746;16.106;2022-11-20T01:23:01;20.80;35.10
67101;DHT22;54019;61.746;16.106;2022-11-20T01:25:27;20.80;35.10
67101;DHT22;54019;61.746;16.106;2022-11-20T01:27:53;20.80;35.10
67101;DHT22;54019;61.746;16.106;2022-11-20T01:30:19;20.80;35.10
67101;DHT22;54019;61.746;16.106;2022-11-20T01:32:45;20.80;35.00
67101;DHT22;54019;61.746;16.106;2022-11-20T01:35:10;20.80;34.80
67101;DHT22;54019;61.746;16.106;2022-11-20T01:37:36;20.80;34.90
67101;DHT22;54019;61.746;16.106;2022-11-20T01:40:05;20.80;35.10
67101;DHT22;54019;61.746;16.106;2022-11-20T01:42:31;20.80;35.00
67101;DHT22;54019;61.746;16.106;2022-11-20T01:44:59;20.80;35.00
67101;DHT22;54019;61.746;16.106;2022-11-20T01:47:29;20.80;35.10
67101;DHT22;54019;61.746;16.106;2022-11-20T01:49:58;20.80;35.00
67101;DHT22;54019;61.746;16.106;2022-11-20T01:52:27;20.80;35.00
67101;DHT22;54019;61.746;16.106;2022-11-20T01:54:59;20.70;35.00
67101;DHT22;54019;61.746;16.106;2022-11-20T01:57:28;20.80;35.10
67101;DHT22;54019;61.746;16.106;2022-11-20T02:00:00;20.80;35.10
67101;DHT22;54019;61.746;16.106;2022-11-20T02:02:27;20.80;35.00
67101;DHT22;54019;61.746;16.106;2022-11-20T02:04:54;20.80;34.80
67101;DHT22;54019;61.746;16.106;2022-11-20T02:07:22;20.80;34.90
67101;DHT22;54019;61.746;16.106;2022-11-20T02:09:49;20.80;34.80
67101;DHT22;54019;61.746;16.106;2022-11-20T02:12:15;20.80;34.90
67101;DHT22;54019;61.746;16.106;2022-11-20T02:14:42;20.80;35.00
67101;DHT22;54019;61.746;16.106;2022-11-20T02:17:08;20.80;34.90
67101;DHT22;54019;61.746;16.106;2022-11-20T02:19:34;20.80;35.00
67101;DHT22;54019;61.746;16.106;2022-11-20T02:22:03;20.70;34.90
67101;DHT22;54019;61.746;16.106;2022-11-20T02:24:32;20.70;34.90
67101;DHT22;54019;61.746;16.106;2022-11-20T02:27:01;20.80;34.90
67101;DHT22;54019;61.746;16.106;2022-11-20T02:29:31;20.70;34.80
67101;DHT22;54019;61.746;16.106;2022-11-20T02:31:59;20.70;34.70
67101;DHT22;54019;61.746;16.106;2022-11-20T02:34:25;20.80;34.50
67101;DHT22;54019;61.746;16.106;2022-11-20T02:36:52;20.70;34.70
67101;DHT22;54019;61.746;16.106;2022-11-20T02:39:19;20.80;34.70
67101;DHT22;54019;61.746;16.106;2022-11-20T02:41:47;20.70;34.90
67101;DHT22;54019;61.746;16.106;2022-11-20T02:44:13;20.80;34.90
67101;DHT22;54019;61.746;16.106;2022-11-20T02:46:39;20.70;34.90
67101;DHT22;54019;61.746;16.106;2022-11-20T02:49:05;20.80;34.90
67101;DHT22;54019;61.746;16.106;2022-11-20T02:51:31;20.70;34.50
67101;DHT22;54019;61.746;16.106;2022-11-20T02:53:57;20.70;34.60
67101;DHT22;54019;61.746;16.106;2022-11-20T02:56:23;20.70;34.70
67101;DHT22;54019;61.746;16.106;2022-11-20T02:58:50;20.70;34.80
67101;DHT22;54019;61.746;16.106;2022-11-20T03:01:16;20.70;34.60
67101;DHT22;54019;61.746;16.106;2022-11-20T03:03:42;20.70;34.50
67101;DHT22;54019;61.746;16.106;2022-11-20T03:06:08;20.70;34.50
67101;DHT22;54019;61.746;16.106;2022-11-20T03:08:34;20.70;34.40
67101;DHT22;54019;61.746;16.106;2022-11-20T03:11:02;20.70;34.20
67101;DHT22;54019;61.746;16.106;2022-11-20T03:13:29;20.70;34.10
67101;DHT22;54019;61.746;16.106;2022-11-20T03:15:56;20.70;34.00
67101;DHT22;54019;61.746;16.106;2022-11-20T03:18:22;20.70;34.20
67101;DHT22;54019;61.746;16.106;2022-11-20T03:20:47;20.70;34.10
67101;DHT22;54019;61.746;16.106;2022-11-20T03:23:13;20.60;33.90
67101;DHT22;54019;61.746;16.106;2022-11-20T03:25:39;20.70;33.90
67101;DHT22;54019;61.746;16.106;2022-11-20T03:28:05;20.70;33.90
67101;DHT22;54019;61.746;16.106;2022-11-20T03:30:30;20.70;33.70
67101;DHT22;54019;61.746;16.106;2022-11-20T03:32:58;20.70;33.60
67101;DHT22;54019;61.746;16.106;2022-11-20T03:35:23;20.70;34.00
67101;DHT22;54019;61.746;16.106;2022-11-20T03:37:49;20.70;33.90
67101;DHT22;54019;61.746;16.106;2022-11-20T03:40:15;20.70;33.80
67101;DHT22;54019;61.746;16.106;2022-11-20T03:42:41;20.70;33.70
67101;DHT22;54019;61.746;16.106;2022-11-20T03:45:07;20.70;33.60
67101;DHT22;54019;61.746;16.106;2022-11-20T03:47:33;20.70;33.70
67101;DHT22;54019;61.746;16.106;2022-11-20T03:50:00;20.70;33.60
67101;DHT22;54019;61.746;16.106;2022-11-20T03:52:26;20.70;34.30
67101;DHT22;54019;61.746;16.106;2022-11-20T03:54:52;20.70;33.60
67101;DHT22;54019;61.746;16.106;2022-11-20T03:57:18;20.60;33.40
67101;DHT22;54019;61.746;16.106;2022-11-20T03:59:44;20.70;33.50
67101;DHT22;54019;61.746;16.106;2022-11-20T04:02:09;20.70;33.40
67101;DHT22;54019;61.746;16.106;2022-11-20T04:04:35;20.70;33.30
67101;DHT22;54019;61.746;16.106;2022-11-20T04:07:02;20.70;33.30
67101;DHT22;54019;61.746;16.106;2022-11-20T04:09:28;20.70;33.40
67101;DHT22;54019;61.746;16.106;2022-11-20T04:11:54;20.70;33.40
67101;DHT22;54019;61.746;16.106;2022-11-20T04:14:20;20.70;33.40
67101;DHT22;54019;61.746;16.106;2022-11-20T04:16:46;20.70;33.50
67101;DHT22;54019;61.746;16.106;2022-11-20T04:19:14;20.60;33.50
67101;DHT22;54019;61.746;16.106;2022-11-20T04:21:41;20.70;33.60
67101;DHT22;54019;61.746;16.106;2022-11-20T04:24:08;20.70;33.50
67101;DHT22;54019;61.746;16.106;2022-11-20T04:26:34;20.70;33.40
67101;DHT22;54019;61.746;16.106;2022-11-20T04:29:00;20.70;33.40
67101;DHT22;54019;61.746;16.106;2022-11-20T04:31:28;20.70;33.30
67101;DHT22;54019;61.746;16.106;2022-11-20T04:33:54;20.60;33.00
67101;DHT22;54019;61.746;16.106;2022-11-20T04:36:21;20.70;33.00
67101;DHT22;54019;61.746;16.106;2022-11-20T04:38:50;20.80;32.90
67101;DHT22;54019;61.746;16.106;2022-11-20T04:41:19;20.70;32.90
67101;DHT22;54019;61.746;16.106;2022-11-20T04:43:46;20.80;32.90
67101;DHT22;54019;61.746;16.106;2022-11-20T04:46:12;20.80;32.80
67101;DHT22;54019;61.746;16.106;2022-11-20T04:48:38;20.80;32.70
67101;DHT22;54019;61.746;16.106;2022-11-20T04:51:04;20.80;32.40
67101;DHT22;54019;61.746;16.106;2022-11-20T04:53:30;20.80;32.20
67101;DHT22;54019;61.746;16.106;2022-11-20T04:55:59;20.90;32.10
67101;DHT22;54019;61.746;16.106;2022-11-20T04:58:27;21.00;32.00
67101;DHT22;54019;61.746;16.106;2022-11-20T05:00:52;21.00;31.80
67101;DHT22;54019;61.746;16.106;2022-11-20T05:03:18;21.10;31.80
67101;DHT22;54019;61.746;16.106;2022-11-20T05:05:44;21.10;31.70
67101;DHT22;54019;61.746;16.106;2022-11-20T05:08:10;21.10;31.70
67101;DHT22;54019;61.746;16.106;2022-11-20T05:10:36;21.10;31.60
67101;DHT22;54019;61.746;16.106;2022-11-20T05:13:02;21.10;31.50
67101;DHT22;54019;61.746;16.106;2022-11-20T05:15:29;21.10;31.50
67101;DHT22;54019;61.746;16.106;2022-11-20T05:17:55;21.10;31.50
67101;DHT22;54019;61.746;16.106;2022-11-20T05:20:20;21.10;31.60
67101;DHT22;54019;61.746;16.106;2022-11-20T05:22:46;21.00;31.40
67101;DHT22;54019;61.746;16.106;2022-11-20T05:25:12;21.10;32.20
67101;DHT22;54019;61.746;16.106;2022-11-20T05:27:38;21.10;31.50
67101;DHT22;54019;61.746;16.106;2022-11-20T05:30:05;21.10;31.40
67101;DHT22;54019;61.746;16.106;2022-11-20T05:32:33;21.20;31.30
67101;DHT22;54019;61.746;16.106;2022-11-20T05:34:59;21.20;31.20
67101;DHT22;54019;61.746;16.106;2022-11-20T05:37:25;21.30;31.10
67101;DHT22;54019;61.746;16.106;2022-11-20T05:39:52;21.30;31.10
67101;DHT22;54019;61.746;16.106;2022-11-20T05:42:17;21.30;31.10
67101;DHT22;54019;61.746;16.106;2022-11-20T05:44:43;21.30;31.10
67101;DHT22;54019;61.746;16.106;2022-11-20T05:47:09;21.20;31.00
67101;DHT22;54019;61.746;16.106;2022-11-20T05:49:36;21.20;31.20
67101;DHT22;54019;61.746;16.106;2022-11-20T05:52:02;21.20;31.20
67101;DHT22;54019;61.746;16.106;2022-11-20T05:54:28;21.20;31.30
67101;DHT22;54019;61.746;16.106;2022-11-20T05:56:54;21.20;31.30
67101;DHT22;54019;61.746;16.106;2022-11-20T05:59:20;21.20;31.30
67101;DHT22;54019;61.746;16.106;2022-11-20T06:01:45;21.30;31.30
67101;DHT22;54019;61.746;16.106;2022-11-20T06:04:11;21.30;31.30
67101;DHT22;54019;61.746;16.106;2022-11-20T06:06:38;21.30;31.30
67101;DHT22;54019;61.746;16.106;2022-11-20T06:09:04;21.30;31.20
67101;DHT22;54019;61.746;16.106;2022-11-20T06:11:30;21.40;31.30
67101;DHT22;54019;61.746;16.106;2022-11-20T06:13:56;21.40;31.20
67101;DHT22;54019;61.746;16.106;2022-11-20T06:16:22;21.40;31.20
67101;DHT22;54019;61.746;16.106;2022-11-20T06:18:47;21.40;31.30
67101;DHT22;54019;61.746;16.106;2022-11-20T06:21:15;21.40;31.20
67101;DHT22;54019;61.746;16.106;2022-11-20T06:23:43;21.30;31.30
67101;DHT22;54019;61.746;16.106;2022-11-20T06:26:11;21.30;31.30
67101;DHT22;54019;61.746;16.106;2022-11-20T06:28:37;21.30;31.30
67101;DHT22;54019;61.746;16.106;2022-11-20T06:31:03;21.30;31.10
67101;DHT22;54019;61.746;16.106;2022-11-20T06:33:29;21.30;31.30
67101;DHT22;54019;61.746;16.106;2022-11-20T06:35:56;21.30;31.30
67101;DHT22;54019;61.746;16.106;2022-11-20T06:38:22;21.40;31.30
67101;DHT22;54019;61.746;16.106;2022-11-20T06:40:49;21.40;31.20
67101;DHT22;54019;61.746;16.106;2022-11-20T06:43:15;21.40;31.10
67101;DHT22;54019;61.746;16.106;2022-11-20T06:45:41;21.40;31.00
67101;DHT22;54019;61.746;16.106;2022-11-20T06:48:07;21.50;31.10
67101;DHT22;54019;61.746;16.106;2022-11-20T06:50:33;21.50;31.00
67101;DHT22;54019;61.746;16.106;2022-11-20T06:53:00;21.40;30.80
67101;DHT22;54019;61.746;16.106;2022-11-20T06:55:26;21.40;30.90
67101;DHT22;54019;61.746;16.106;2022-11-20T06:57:53;21.40;30.90
67101;DHT22;54019;61.746;16.106;2022-11-20T07:00:19;21.40;30.80
67101;DHT22;54019;61.746;16.106;2022-11-20T07:02:45;21.40;30.90
67101;DHT22;54019;61.746;16.106;2022-11-20T07:05:11;21.30;30.80
67101;DHT22;54019;61.746;16.106;2022-11-20T07:07:37;21.30;30.80
67101;DHT22;54019;61.746;16.106;2022-11-20T07:10:03;21.30;30.90
67101;DHT22;54019;61.746;16.106;2022-11-20T07:12:30;21.40;30.90
67101;DHT22;54019;61.746;16.106;2022-11-20T07:14:57;21.40;30.90
67101;DHT22;54019;61.746;16.106;2022-11-20T07:17:23;21.40;30.70
67101;DHT22;54019;61.746;16.106;2022-11-20T07:19:48;21.50;30.80
67101;DHT22;54019;61.746;16.106;2022-11-20T07:22:14;21.50;30.70
67101;DHT22;54019;61.746;16.106;2022-11-20T07:24:40;21.50;30.60
67101;DHT22;54019;61.746;16.106;2022-11-20T07:27:06;21.50;30.60
67101;DHT22;54019;61.746;16.106;2022-11-20T07:29:32;21.50;30.50
67101;DHT22;54019;61.746;16.106;2022-11-20T07:31:59;21.40;29.90
67101;DHT22;54019;61.746;16.106;2022-11-20T07:34:25;21.30;29.00
67101;DHT22;54019;61.746;16.106;2022-11-20T07:36:50;21.30;29.20
67101;DHT22;54019;61.746;16.106;2022-11-20T07:39:16;21.20;29.60
67101;DHT22;54019;61.746;16.106;2022-11-20T07:41:42;21.30;29.80
67101;DHT22;54019;61.746;16.106;2022-11-20T07:44:08;21.30;29.90
67101;DHT22;54019;61.746;16.106;2022-11-20T07:46:33;21.40;30.00
67101;DHT22;54019;61.746;16.106;2022-11-20T07:49:01;21.40;30.20
67101;DHT22;54019;61.746;16.106;2022-11-20T07:51:26;21.50;30.50
67101;DHT22;54019;61.746;16.106;2022-11-20T07:53:52;21.50;30.50
67101;DHT22;54019;61.746;16.106;2022-11-20T07:56:18;21.60;30.50
67101;DHT22;54019;61.746;16.106;2022-11-20T07:58:44;21.60;30.80
67101;DHT22;54019;61.746;16.106;2022-11-20T08:01:10;21.50;30.90
67101;DHT22;54019;61.746;16.106;2022-11-20T08:03:35;21.50;30.90
67101;DHT22;54019;61.746;16.106;2022-11-20T08:06:03;21.50;30.80
67101;DHT22;54019;61.746;16.106;2022-11-20T08:08:30;21.50;30.90
67101;DHT22;54019;61.746;16.106;2022-11-20T08:10:56;21.50;30.90
67101;DHT22;54019;61.746;16.106;2022-11-20T08:13:22;21.40;30.90
67101;DHT22;54019;61.746;16.106;2022-11-20T08:15:51;21.40;30.90
67101;DHT22;54019;61.746;16.106;2022-11-20T08:18:17;21.40;30.90
67101;DHT22;54019;61.746;16.106;2022-11-20T08:20:43;21.50;31.00
67101;DHT22;54019;61.746;16.106;2022-11-20T08:23:11;21.50;31.10
67101;DHT22;54019;61.746;16.106;2022-11-20T08:25:37;21.60;31.10
67101;DHT22;54019;61.746;16.106;2022-11-20T08:28:05;21.60;31.00
67101;DHT22;54019;61.746;16.106;2022-11-20T08:30:35;21.60;31.10
67101;DHT22;54019;61.746;16.106;2022-11-20T08:33:02;21.60;31.20
67101;DHT22;54019;61.746;16.106;2022-11-20T08:35:28;21.70;31.30
67101;DHT22;54019;61.746;16.106;2022-11-20T08:37:53;21.60;31.10
67101;DHT22;54019;61.746;16.106;2022-11-20T08:40:21;21.60;31.20
67101;DHT22;54019;61.746;16.106;2022-11-20T08:42:47;21.60;31.20
67101;DHT22;54019;61.746;16.106;2022-11-20T08:45:13;21.60;31.20
67101;DHT22;54019;61.746;16.106;2022-11-20T08:47:39;21.50;31.20
67101;DHT22;54019;61.746;16.106;2022-11-20T08:50:05;21.50;31.30
67101;DHT22;54019;61.746;16.106;2022-11-20T08:52:31;21.50;31.30
67101;DHT22;54019;61.746;16.106;2022-11-20T08:54:57;21.60;31.40
67101;DHT22;54019;61.746;16.106;2022-11-20T08:57:24;21.60;31.50
67101;DHT22;54019;61.746;16.106;2022-11-20T08:59:50;21.60;31.50
67101;DHT22;54019;61.746;16.106;2022-11-20T09:02:16;21.70;31.50
67101;DHT22;54019;61.746;16.106;2022-11-20T09:04:42;21.70;31.70
67101;DHT22;54019;61.746;16.106;2022-11-20T09:07:07;21.70;31.30
67101;DHT22;54019;61.746;16.106;2022-11-20T09:09:33;21.70;31.60
67101;DHT22;54019;61.746;16.106;2022-11-20T09:11:59;21.70;31.60
67101;DHT22;54019;61.746;16.106;2022-11-20T09:14:26;21.70;31.60
67101;DHT22;54019;61.746;16.106;2022-11-20T09:16:52;21.70;31.70
67101;DHT22;54019;61.746;16.106;2022-11-20T09:19:18;21.60;31.50
67101;DHT22;54019;61.746;16.106;2022-11-20T09:21:44;21.60;31.50
67101;DHT22;54019;61.746;16.106;2022-11-20T09:24:10;21.60;31.40
67101;DHT22;54019;61.746;16.106;2022-11-20T09:26:35;21.60;31.30
67101;DHT22;54019;61.746;16.106;2022-11-20T09:29:01;21.60;31.30
67101;DHT22;54019;61.746;16.106;2022-11-20T09:31:28;21.60;31.20
67101;DHT22;54019;61.746;16.106;2022-11-20T09:33:54;21.70;31.40
67101;DHT22;54019;61.746;16.106;2022-11-20T09:36:20;21.70;31.40
67101;DHT22;54019;61.746;16.106;2022-11-20T09:38:46;21.70;31.50
67101;DHT22;54019;61.746;16.106;2022-11-20T09:44:07;21.70;31.40
67101;DHT22;54019;61.746;16.106;2022-11-20T09:46:38;21.80;31.20
67101;DHT22;54019;61.746;16.106;2022-11-20T09:49:23;21.70;33.00
67101;DHT22;54019;61.746;16.106;2022-11-20T09:51:56;21.70;32.20
67101;DHT22;54019;61.746;16.106;2022-11-20T09:54:27;21.70;32.50
67101;DHT22;54019;61.746;16.106;2022-11-20T09:56:54;21.70;37.50
67101;DHT22;54019;61.746;16.106;2022-11-20T09:59:34;21.60;39.60
67101;DHT22;54019;61.746;16.106;2022-11-20T10:02:08;21.60;42.80
67101;DHT22;54019;61.746;16.106;2022-11-20T10:04:44;21.60;37.70
67101;DHT22;54019;61.746;16.106;2022-11-20T10:07:15;21.60;38.00
67101;DHT22;54019;61.746;16.106;2022-11-20T10:09:50;21.50;40.10
67101;DHT22;54019;61.746;16.106;2022-11-20T10:12:22;21.50;39.80
67101;DHT22;54019;61.746;16.106;2022-11-20T10:15:04;21.50;39.50
67101;DHT22;54019;61.746;16.106;2022-11-20T10:17:53;21.50;38.60
67101;DHT22;54019;61.746;16.106;2022-11-20T10:20:27;21.40;36.50
67101;DHT22;54019;61.746;16.106;2022-11-20T10:25:46;21.40;36.50
67101;DHT22;54019;61.746;16.106;2022-11-20T10:28:30;21.40;36.40
67101;DHT22;54019;61.746;16.106;2022-11-20T10:31:02;21.50;36.00
67101;DHT22;54019;61.746;16.106;2022-11-20T10:33:34;21.60;35.70
67101;DHT22;54019;61.746;16.106;2022-11-20T10:36:08;21.70;35.60
67101;DHT22;54019;61.746;16.106;2022-11-20T10:38:42;21.80;35.30
67101;DHT22;54019;61.746;16.106;2022-11-20T10:41:16;21.80;34.70
67101;DHT22;54019;61.746;16.106;2022-11-20T10:43:43;21.80;33.70
67101;DHT22;54019;61.746;16.106;2022-11-20T10:46:14;21.80;33.70
67101;DHT22;54019;61.746;16.106;2022-11-20T10:48:43;21.70;33.30
67101;DHT22;54019;61.746;16.106;2022-11-20T10:51:17;21.80;33.80
67101;DHT22;54019;61.746;16.106;2022-11-20T10:53:58;21.70;34.60
67101;DHT22;54019;61.746;16.106;2022-11-20T10:56:30;21.70;35.30
67101;DHT22;54019;61.746;16.106;2022-11-20T10:59:17;21.80;35.50
67101;DHT22;54019;61.746;16.106;2022-11-20T11:01:45;21.80;34.80
67101;DHT22;54019;61.746;16.106;2022-11-20T11:04:23;21.90;35.50
67101;DHT22;54019;61.746;16.106;2022-11-20T11:06:56;22.00;34.70
67101;DHT22;54019;61.746;16.106;2022-11-20T11:09:30;22.00;34.20
67101;DHT22;54019;61.746;16.106;2022-11-20T11:11:58;22.00;33.90
67101;DHT22;54019;61.746;16.106;2022-11-20T11:14:24;22.00;34.10
67101;DHT22;54019;61.746;16.106;2022-11-20T11:16:50;22.00;33.50
67101;DHT22;54019;61.746;16.106;2022-11-20T11:19:18;22.00;33.30
67101;DHT22;54019;61.746;16.106;2022-11-20T11:21:46;22.00;33.30
67101;DHT22;54019;61.746;16.106;2022-11-20T11:24:20;21.90;33.00
67101;DHT22;54019;61.746;16.106;2022-11-20T11:26:55;21.90;32.50
67101;DHT22;54019;61.746;16.106;2022-11-20T11:29:21;21.90;32.20
67101;DHT22;54019;61.746;16.106;2022-11-20T11:31:47;21.80;32.00
67101;DHT22;54019;61.746;16.106;2022-11-20T11:34:14;21.80;31.60
67101;DHT22;54019;61.746;16.106;2022-11-20T11:36:42;21.70;31.50
67101;DHT22;54019;61.746;16.106;2022-11-20T11:39:17;21.80;31.10
67101;DHT22;54019;61.746;16.106;2022-11-20T11:41:44;21.80;30.90
67101;DHT22;54019;61.746;16.106;2022-11-20T11:44:16;21.80;31.00
67101;DHT22;54019;61.746;16.106;2022-11-20T11:46:50;21.80;30.90
67101;DHT22;54019;61.746;16.106;2022-11-20T11:49:19;21.90;31.00
67101;DHT22;54019;61.746;16.106;2022-11-20T11:52:00;21.90;31.10
67101;DHT22;54019;61.746;16.106;2022-11-20T11:54:31;21.90;31.00
67101;DHT22;54019;61.746;16.106;2022-11-20T11:57:01;21.80;30.60
67101;DHT22;54019;61.746;16.106;2022-11-20T11:59:34;21.80;30.50
67101;DHT22;54019;61.746;16.106;2022-11-20T12:02:29;21.80;30.50
67101;DHT22;54019;61.746;16.106;2022-11-20T12:04:59;21.80;30.50
67101;DHT22;54019;61.746;16.106;2022-11-20T12:07:38;21.70;30.30
67101;DHT22;54019;61.746;16.106;2022-11-20T12:10:08;21.70;30.20
67101;DHT22;54019;61.746;16.106;2022-11-20T12:12:41;21.70;30.30
67101;DHT22;54019;61.746;16.106;2022-11-20T12:15:11;21.70;30.20
67101;DHT22;54019;61.746;16.106;2022-11-20T12:17:38;21.70;30.30
67101;DHT22;54019;61.746;16.106;2022-11-20T12:20:10;21.80;30.30
67101;DHT22;54019;61.746;16.106;2022-11-20T12:22:43;21.80;30.20
67101;DHT22;54019;61.746;16.106;2022-11-20T12:25:16;21.80;30.30
67101;DHT22;54019;61.746;16.106;2022-11-20T12:28:13;21.80;30.30
67101;DHT22;54019;61.746;16.106;2022-11-20T12:30:49;21.80;30.00
67101;DHT22;54019;61.746;16.106;2022-11-20T12:33:33;21.80;30.10
67101;DHT22;54019;61.746;16.106;2022-11-20T12:36:11;21.80;30.00
67101;DHT22;54019;61.746;16.106;2022-11-20T12:39:07;21.80;30.00
67101;DHT22;54019;61.746;16.106;2022-11-20T12:41:47;21.70;29.90
67101;DHT22;54019;61.746;16.106;2022-11-20T12:44:25;21.70;30.10
67101;DHT22;54019;61.746;16.106;2022-11-20T12:47:07;21.70;30.10
67101;DHT22;54019;61.746;16.106;2022-11-20T12:49:40;21.70;29.90
67101;DHT22;54019;61.746;16.106;2022-11-20T12:52:23;21.80;30.30
67101;DHT22;54019;61.746;16.106;2022-11-20T12:55:08;21.80;30.40
67101;DHT22;54019;61.746;16.106;2022-11-20T12:57:42;21.80;30.50
67101;DHT22;54019;61.746;16.106;2022-11-20T13:00:14;21.90;30.50
67101;DHT22;54019;61.746;16.106;2022-11-20T13:05:33;21.80;30.40
67101;DHT22;54019;61.746;16.106;2022-11-20T13:08:02;21.80;30.10
67101;DHT22;54019;61.746;16.106;2022-11-20T13:10:37;21.70;30.20
67101;DHT22;54019;61.746;16.106;2022-11-20T13:13:11;21.60;29.70
67101;DHT22;54019;61.746;16.106;2022-11-20T13:15:47;21.60;29.30
67101;DHT22;54019;61.746;16.106;2022-11-20T13:18:16;21.60;29.10
67101;DHT22;54019;61.746;16.106;2022-11-20T13:20:44;21.50;28.90
67101;DHT22;54019;61.746;16.106;2022-11-20T13:23:10;21.60;28.90
67101;DHT22;54019;61.746;16.106;2022-11-20T13:25:38;21.60;28.60
67101;DHT22;54019;61.746;16.106;2022-11-20T13:28:27;21.70;29.10
67101;DHT22;54019;61.746;16.106;2022-11-20T13:30:55;21.70;28.80
67101;DHT22;54019;61.746;16.106;2022-11-20T13:33:25;21.70;28.60
67101;DHT22;54019;61.746;16.106;2022-11-20T13:35:56;21.70;28.60
67101;DHT22;54019;61.746;16.106;2022-11-20T13:38:22;21.60;28.50
67101;DHT22;54019;61.746;16.106;2022-11-20T13:40:53;21.60;28.40
67101;DHT22;54019;61.746;16.106;2022-11-20T13:43:26;21.60;28.50
67101;DHT22;54019;61.746;16.106;2022-11-20T13:45:56;21.50;28.30
67101;DHT22;54019;61.746;16.106;2022-11-20T13:48:24;21.50;28.10
67101;DHT22;54019;61.746;16.106;2022-11-20T13:53:53;21.40;27.90
67101;DHT22;54019;61.746;16.106;2022-11-20T13:56:34;21.40;28.20
67101;DHT22;54019;61.746;16.106;2022-11-20T13:59:06;21.40;28.10
67101;DHT22;54019;61.746;16.106;2022-11-20T14:01:34;21.40;28.20
67101;DHT22;54019;61.746;16.106;2022-11-20T14:04:05;21.40;28.50
67101;DHT22;54019;61.746;16.106;2022-11-20T14:06:34;21.50;28.90
67101;DHT22;54019;61.746;16.106;2022-11-20T14:09:04;21.50;29.00
67101;DHT22;54019;61.746;16.106;2022-11-20T14:11:31;21.60;29.70
67101;DHT22;54019;61.746;16.106;2022-11-20T14:14:00;21.60;30.40
67101;DHT22;54019;61.746;16.106;2022-11-20T14:16:28;21.60;31.10
67101;DHT22;54019;61.746;16.106;2022-11-20T14:18:55;21.60;31.20
67101;DHT22;54019;61.746;16.106;2022-11-20T14:21:26;21.70;31.40
67101;DHT22;54019;61.746;16.106;2022-11-20T14:24:03;21.70;31.40
67101;DHT22;54019;61.746;16.106;2022-11-20T14:26:31;21.70;31.50
67101;DHT22;54019;61.746;16.106;2022-11-20T14:28:57;21.70;31.20
67101;DHT22;54019;61.746;16.106;2022-11-20T14:31:25;21.60;31.70
67101;DHT22;54019;61.746;16.106;2022-11-20T14:33:52;21.60;31.40
67101;DHT22;54019;61.746;16.106;2022-11-20T14:36:21;21.70;31.60
67101;DHT22;54019;61.746;16.106;2022-11-20T14:38:47;21.70;31.20
67101;DHT22;54019;61.746;16.106;2022-11-20T14:41:18;21.80;31.40
67101;DHT22;54019;61.746;16.106;2022-11-20T14:43:49;21.80;31.10
67101;DHT22;54019;61.746;16.106;2022-11-20T14:46:16;21.80;31.20
67101;DHT22;54019;61.746;16.106;2022-11-20T14:48:45;21.80;30.70
67101;DHT22;54019;61.746;16.106;2022-11-20T14:51:18;21.80;30.50
67101;DHT22;54019;61.746;16.106;2022-11-20T14:53:48;21.70;30.50
67101;DHT22;54019;61.746;16.106;2022-11-20T14:56:21;21.70;30.40
67101;DHT22;54019;61.746;16.106;2022-11-20T14:58:54;21.60;30.20
67101;DHT22;54019;61.746;16.106;2022-11-20T15:01:25;21.60;29.80
67101;DHT22;54019;61.746;16.106;2022-11-20T15:03:59;21.60;29.90
67101;DHT22;54019;61.746;16.106;2022-11-20T15:06:26;21.50;29.40
67101;DHT22;54019;61.746;16.106;2022-11-20T15:08:52;21.50;29.20
67101;DHT22;54019;61.746;16.106;2022-11-20T15:11:27;21.50;29.20
67101;DHT22;54019;61.746;16.106;2022-11-20T15:13:54;21.60;29.20
67101;DHT22;54019;61.746;16.106;2022-11-20T15:16:21;21.60;29.10
67101;DHT22;54019;61.746;16.106;2022-11-20T15:18:48;21.60;29.10
67101;DHT22;54019;61.746;16.106;2022-11-20T15:21:15;21.70;29.00
67101;DHT22;54019;61.746;16.106;2022-11-20T15:23:41;21.70;28.90
67101;DHT22;54019;61.746;16.106;2022-11-20T15:26:08;21.60;29.20
67101;DHT22;54019;61.746;16.106;2022-11-20T15:28:36;21.60;29.20
67101;DHT22;54019;61.746;16.106;2022-11-20T15:31:04;21.60;28.90
67101;DHT22;54019;61.746;16.106;2022-11-20T15:33:30;21.60;29.00
67101;DHT22;54019;61.746;16.106;2022-11-20T15:35:56;21.50;29.50